createdAt,value
2023-03-13T00:00:09.079Z,2.55
2023-03-13T00:02:38.525Z,2.35
2023-03-13T00:05:05.907Z,2.60
2023-03-13T00:07:32.752Z,2.80
2023-03-13T00:09:59.832Z,2.25
2023-03-13T00:12:29.064Z,2.05
2023-03-13T00:14:56.185Z,2.30
2023-03-13T00:17:25.292Z,2.55
2023-03-13T00:19:53.184Z,3.13
2023-03-13T00:22:20.440Z,2.25
2023-03-13T00:24:47.284Z,3.33
2023-03-13T00:27:14.124Z,2.22
2023-03-13T00:29:41.135Z,2.67
2023-03-13T00:32:11.726Z,3.47
2023-03-13T00:34:39.834Z,2.65
2023-03-13T00:37:08.734Z,3.15
2023-03-13T00:39:38.091Z,3.58
2023-03-13T00:42:05.902Z,4.28
2023-03-13T00:44:33.016Z,4.05
2023-03-13T00:47:05.621Z,4.22
2023-03-13T00:49:32.566Z,4.22
2023-03-13T00:52:01.528Z,4.35
2023-03-13T00:54:29.545Z,4.45
2023-03-13T00:56:56.600Z,4.80
2023-03-13T00:59:25.510Z,4.50
2023-03-13T01:01:52.338Z,4.40
2023-03-13T01:04:20.534Z,4.10
2023-03-13T01:06:47.420Z,4.50
2023-03-13T01:09:15.462Z,4.53
2023-03-13T01:11:42.925Z,4.30
2023-03-13T01:14:12.265Z,4.78
2023-03-13T01:16:39.346Z,4.43
2023-03-13T01:19:13.141Z,4.43
2023-03-13T01:21:41.183Z,4.40
2023-03-13T01:24:08.127Z,4.32
2023-03-13T01:26:35.835Z,4.25
2023-03-13T01:29:02.650Z,4.28
2023-03-13T01:31:34.873Z,5.22
2023-03-13T01:34:06.761Z,4.83
2023-03-13T01:36:34.258Z,4.00
2023-03-13T01:39:04.478Z,4.32
2023-03-13T01:41:32.196Z,4.75
2023-03-13T01:43:59.376Z,3.63
2023-03-13T01:46:28.460Z,4.57
2023-03-13T01:49:05.695Z,4.20
2023-03-13T01:51:46.846Z,4.60
2023-03-13T01:54:51.688Z,4.55
2023-03-13T01:57:35.312Z,4.55
2023-03-13T02:00:14.637Z,4.35
2023-03-13T02:02:45.653Z,5.07
2023-03-13T02:05:12.786Z,4.65
2023-03-13T02:07:44.600Z,4.47
2023-03-13T02:10:12.844Z,4.03
2023-03-13T02:12:40.343Z,4.40
2023-03-13T02:15:21.680Z,4.03
2023-03-13T02:17:49.467Z,4.97
2023-03-13T02:20:17.896Z,4.57
2023-03-13T02:23:00.053Z,3.95
2023-03-13T02:25:30.276Z,4.28
2023-03-13T02:28:09.310Z,4.03
2023-03-13T02:30:36.130Z,3.95
2023-03-13T02:33:03.031Z,3.97
2023-03-13T02:35:36.143Z,4.00
2023-03-13T02:38:07.101Z,3.80
2023-03-13T02:40:36.639Z,4.07
2023-03-13T02:43:07.365Z,3.78
2023-03-13T02:45:35.172Z,4.50
2023-03-13T02:48:02.012Z,4.10
2023-03-13T02:50:29.003Z,3.88
2023-03-13T02:52:59.804Z,4.53
2023-03-13T02:55:44.018Z,4.45
2023-03-13T02:58:13.151Z,4.95
2023-03-13T03:00:40.131Z,4.82
2023-03-13T03:03:07.023Z,4.57
2023-03-13T03:05:34.242Z,4.30
2023-03-13T03:08:01.688Z,4.20
2023-03-13T03:10:31.756Z,4.40
2023-03-13T03:13:00.053Z,4.38
2023-03-13T03:15:27.092Z,4.95
2023-03-13T03:17:54.506Z,3.97
2023-03-13T03:20:26.745Z,4.57
2023-03-13T03:22:53.512Z,4.80
2023-03-13T03:25:20.839Z,4.57
2023-03-13T03:27:47.677Z,3.83
2023-03-13T03:30:15.312Z,4.03
2023-03-13T03:32:42.309Z,4.10
2023-03-13T03:35:09.475Z,4.22
2023-03-13T03:37:36.274Z,4.30
2023-03-13T03:40:05.877Z,3.47
2023-03-13T03:42:33.404Z,4.88
2023-03-13T03:45:00.698Z,4.00
2023-03-13T03:47:30.600Z,4.80
2023-03-13T03:49:58.948Z,4.57
2023-03-13T03:52:25.725Z,4.32
2023-03-13T03:54:55.461Z,4.10
2023-03-13T03:57:23.872Z,4.35
2023-03-13T03:59:51.288Z,4.28
2023-03-13T04:02:18.732Z,4.35
2023-03-13T04:04:46.630Z,4.10
2023-03-13T04:07:13.405Z,3.17
2023-03-13T04:09:42.857Z,3.47
2023-03-13T04:12:12.704Z,3.92
2023-03-13T04:14:40.824Z,3.50
2023-03-13T04:17:09.818Z,4.15
2023-03-13T04:19:36.805Z,4.07
2023-03-13T04:22:03.686Z,4.20
2023-03-13T04:24:31.297Z,4.72
2023-03-13T04:26:58.258Z,4.32
2023-03-13T04:29:28.254Z,4.22
2023-03-13T04:31:55.503Z,4.18
2023-03-13T04:34:22.632Z,3.70
2023-03-13T04:36:49.536Z,3.55
2023-03-13T04:39:17.082Z,3.63
2023-03-13T04:41:43.946Z,3.63
2023-03-13T04:44:12.308Z,3.13
2023-03-13T04:46:39.685Z,3.40
2023-03-13T04:49:08.744Z,3.58
2023-03-13T04:51:35.983Z,3.33
2023-03-13T04:54:04.226Z,3.58
2023-03-13T04:56:42.818Z,3.00
2023-03-13T04:59:15.369Z,3.25
2023-03-13T05:01:43.180Z,2.88
2023-03-13T05:04:11.222Z,4.80
2023-03-13T05:06:38.251Z,3.05
2023-03-13T05:09:05.960Z,2.92
2023-03-13T05:11:35.324Z,2.53
2023-03-13T05:14:08.408Z,3.00
2023-03-13T05:19:35.000Z,2.53
2023-03-13T05:22:01.912Z,2.80
2023-03-13T05:24:29.472Z,2.80
2023-03-13T05:26:59.888Z,2.58
2023-03-13T05:29:27.233Z,3.00
2023-03-13T05:32:02.189Z,3.20
2023-03-13T05:34:30.509Z,3.13
2023-03-13T05:36:59.105Z,2.75
2023-03-13T05:39:28.753Z,3.17
2023-03-13T05:41:55.593Z,3.05
2023-03-13T05:44:23.099Z,2.53
2023-03-13T05:46:51.059Z,2.75
2023-03-13T05:49:17.930Z,3.58
2023-03-13T05:51:47.810Z,2.65
2023-03-13T05:54:16.176Z,2.75
2023-03-13T05:56:43.546Z,2.85
2023-03-13T05:59:11.373Z,2.80
2023-03-13T06:01:42.589Z,2.42
2023-03-13T06:04:09.934Z,3.25
2023-03-13T06:06:41.349Z,4.03
2023-03-13T06:09:11.706Z,3.20
2023-03-13T06:11:38.620Z,3.08
2023-03-13T06:14:08.639Z,3.10
2023-03-13T06:16:36.566Z,3.10
2023-03-13T06:19:04.006Z,3.25
2023-03-13T06:21:31.209Z,3.22
2023-03-13T06:23:58.389Z,3.35
2023-03-13T06:26:26.747Z,3.75
2023-03-13T06:28:58.181Z,4.00
2023-03-13T06:31:26.423Z,4.57
2023-03-13T06:33:55.442Z,4.20
2023-03-13T06:36:26.205Z,4.57
2023-03-13T06:38:58.425Z,4.53
2023-03-13T06:41:26.152Z,4.43
2023-03-13T06:43:53.059Z,5.45
2023-03-13T06:46:23.930Z,4.45
2023-03-13T06:48:51.518Z,5.60
2023-03-13T06:51:23.637Z,4.43
2023-03-13T06:53:53.329Z,4.30
2023-03-13T06:56:22.030Z,4.03
2023-03-13T06:58:49.583Z,3.90
2023-03-13T07:01:17.567Z,3.92
2023-03-13T07:03:47.583Z,3.65
2023-03-13T07:06:15.849Z,4.85
2023-03-13T07:08:47.500Z,3.35
2023-03-13T07:11:15.896Z,3.92
2023-03-13T07:13:42.737Z,4.18
2023-03-13T07:16:11.227Z,3.25
2023-03-13T07:18:38.665Z,4.47
2023-03-13T07:21:06.445Z,4.05
2023-03-13T07:23:36.083Z,4.20
2023-03-13T07:26:12.969Z,4.22
2023-03-13T07:28:39.937Z,3.85
2023-03-13T07:31:08.821Z,4.03
2023-03-13T07:33:35.926Z,3.58
2023-03-13T07:36:02.733Z,3.70
2023-03-13T07:38:30.362Z,3.60
2023-03-13T07:40:57.764Z,4.07
2023-03-13T07:43:26.241Z,3.60
2023-03-13T07:46:04.715Z,4.28
2023-03-13T07:48:33.208Z,4.18
2023-03-13T07:51:00.261Z,4.28
2023-03-13T07:53:27.356Z,3.53
2023-03-13T07:55:59.676Z,3.38
2023-03-13T07:58:28.357Z,3.45
2023-03-13T08:00:55.537Z,3.45
2023-03-13T08:03:23.485Z,3.20
2023-03-13T08:06:00.663Z,3.30
2023-03-13T08:08:27.679Z,3.70
2023-03-13T08:10:54.455Z,3.33
2023-03-13T08:13:21.286Z,3.20
2023-03-13T08:15:49.884Z,3.05
2023-03-13T08:18:17.287Z,3.22
2023-03-13T08:20:58.236Z,2.83
2023-03-13T08:23:29.869Z,2.55
2023-03-13T08:26:32.508Z,2.65
2023-03-13T08:31:58.239Z,3.08
2023-03-13T08:34:28.452Z,2.90
2023-03-13T08:37:00.331Z,2.85
2023-03-13T08:39:29.394Z,2.60
2023-03-13T08:41:58.840Z,3.78
2023-03-13T08:44:31.054Z,2.65
2023-03-13T08:47:02.805Z,2.40
2023-03-13T08:49:33.483Z,2.60
2023-03-13T08:52:00.864Z,3.17
2023-03-13T08:54:29.819Z,2.30
2023-03-13T08:56:57.699Z,2.67
2023-03-13T08:59:27.369Z,2.50
2023-03-13T09:01:57.613Z,2.97
2023-03-13T09:04:25.194Z,3.05
2023-03-13T09:06:56.182Z,2.78
2023-03-13T09:09:30.342Z,2.42
2023-03-13T09:11:58.039Z,3.45
2023-03-13T09:17:15.744Z,4.40
2023-03-13T09:22:46.637Z,2.95
2023-03-13T09:25:18.532Z,3.45
2023-03-13T09:30:46.802Z,3.13
2023-03-13T09:33:18.626Z,3.13
2023-03-13T09:35:55.904Z,3.10
2023-03-13T09:44:57.707Z,3.85
2023-03-13T09:47:39.338Z,4.20
2023-03-13T09:50:32.945Z,5.65
2023-03-13T09:56:30.211Z,4.90
2023-03-13T09:59:31.269Z,4.97
2023-03-13T10:02:20.448Z,5.47
2023-03-13T10:04:56.594Z,6.00
2023-03-13T10:08:02.138Z,5.57
2023-03-13T10:13:45.313Z,6.22
2023-03-13T10:16:30.758Z,5.55
2023-03-13T10:19:04.233Z,5.40
2023-03-13T10:24:51.060Z,7.22
2023-03-13T10:27:30.545Z,10.93
